createdAt,value
2018-05-15T00:00:44.926Z,75.59
2018-05-15T00:02:56.069Z,75.68
2018-05-15T00:05:07.190Z,75.78
2018-05-15T00:07:18.377Z,75.78
2018-05-15T00:09:29.527Z,75.68
2018-05-15T00:11:40.639Z,75.45
2018-05-15T00:13:51.768Z,75.36
2018-05-15T00:16:02.974Z,75.43
2018-05-15T00:18:14.067Z,75.52
2018-05-15T00:20:25.241Z,75.58
2018-05-15T00:22:36.454Z,75.55
2018-05-15T00:24:47.690Z,75.51
2018-05-15T00:26:58.822Z,75.53
2018-05-15T00:29:09.996Z,75.53
2018-05-15T00:31:21.192Z,75.45
2018-05-15T00:33:32.269Z,75.46
2018-05-15T00:35:45.489Z,75.49
2018-05-15T00:37:56.613Z,75.45
2018-05-15T00:40:07.715Z,75.43
2018-05-15T00:42:18.846Z,75.43
2018-05-15T00:44:29.936Z,75.48
2018-05-15T00:46:41.171Z,75.46
2018-05-15T00:48:52.267Z,75.35
2018-05-15T00:51:03.476Z,75.17
2018-05-15T00:53:14.600Z,75.04
2018-05-15T00:55:37.752Z,75.05
2018-05-15T00:57:48.975Z,75.11
2018-05-15T01:00:00.068Z,75.17
2018-05-15T01:02:11.336Z,75.29
2018-05-15T01:04:22.446Z,75.20
2018-05-15T01:06:33.532Z,75.22
2018-05-15T01:08:44.635Z,75.34
2018-05-15T01:10:55.687Z,75.42
2018-05-15T01:13:06.823Z,75.46
2018-05-15T01:15:17.950Z,75.53
2018-05-15T01:17:29.080Z,75.59
2018-05-15T01:19:40.154Z,75.60
2018-05-15T01:21:51.194Z,75.62
2018-05-15T01:24:02.285Z,75.70
2018-05-15T01:26:13.358Z,75.68
2018-05-15T01:28:24.523Z,75.68
2018-05-15T01:30:35.732Z,75.72
2018-05-15T01:32:47.866Z,75.75
2018-05-15T01:34:59.571Z,75.73
2018-05-15T01:37:10.637Z,75.76
2018-05-15T01:39:21.705Z,75.77
2018-05-15T01:41:32.758Z,75.71
2018-05-15T01:43:43.819Z,75.67
2018-05-15T01:45:55.082Z,75.69
2018-05-15T01:48:06.138Z,75.72
2018-05-15T01:50:18.355Z,75.75
2018-05-15T01:52:29.465Z,75.70
2018-05-15T01:54:40.563Z,75.74
2018-05-15T01:56:51.746Z,75.78
2018-05-15T01:59:02.877Z,75.75
2018-05-15T02:01:13.982Z,75.77
2018-05-15T02:03:25.198Z,75.75
2018-05-15T02:05:37.704Z,75.78
2018-05-15T02:07:48.912Z,75.86
2018-05-15T02:10:00.019Z,75.89
2018-05-15T02:12:11.223Z,75.94
2018-05-15T02:14:22.363Z,75.94
2018-05-15T02:16:33.492Z,75.93
2018-05-15T02:18:44.624Z,75.88
2018-05-15T02:20:55.769Z,75.73
2018-05-15T02:23:06.939Z,75.65
2018-05-15T02:25:18.047Z,75.54
2018-05-15T02:27:29.139Z,75.41
2018-05-15T02:29:40.268Z,75.19
2018-05-15T02:31:51.418Z,75.27
2018-05-15T02:34:02.568Z,75.25
2018-05-15T02:36:13.715Z,75.26
2018-05-15T02:38:24.864Z,75.26
2018-05-15T02:40:36.047Z,75.17
2018-05-15T02:42:47.241Z,75.12
2018-05-15T02:44:58.420Z,75.13
2018-05-15T02:47:09.474Z,75.03
2018-05-15T02:49:20.551Z,75.00
2018-05-15T02:51:31.619Z,74.90
2018-05-15T02:53:42.782Z,74.93
2018-05-15T02:55:54.010Z,74.92
2018-05-15T02:58:05.165Z,74.91
2018-05-15T03:00:16.281Z,74.94
2018-05-15T03:02:27.475Z,75.00
2018-05-15T03:04:38.530Z,75.05
2018-05-15T03:06:49.628Z,75.06
2018-05-15T03:09:00.714Z,74.96
2018-05-15T03:11:11.779Z,74.90
2018-05-15T03:13:22.871Z,74.95
2018-05-15T03:15:33.955Z,74.89
2018-05-15T03:17:45.011Z,74.84
2018-05-15T03:19:56.093Z,74.79
2018-05-15T03:22:07.214Z,74.74
2018-05-15T03:24:18.298Z,74.72
2018-05-15T03:26:29.396Z,74.72
2018-05-15T03:28:40.466Z,74.64
2018-05-15T03:30:51.652Z,74.62
2018-05-15T03:33:02.766Z,74.69
2018-05-15T03:35:13.885Z,74.78
2018-05-15T03:37:24.925Z,74.84
2018-05-15T03:39:36.007Z,74.73
2018-05-15T03:41:47.071Z,74.69
2018-05-15T03:43:58.162Z,74.64
2018-05-15T03:46:09.267Z,74.61
2018-05-15T03:48:20.362Z,74.53
2018-05-15T03:50:31.443Z,74.51
2018-05-15T03:52:42.512Z,74.51
2018-05-15T03:54:53.610Z,74.43
2018-05-15T03:57:04.738Z,74.49
2018-05-15T03:59:15.831Z,74.56
2018-05-15T04:01:39.130Z,74.53
2018-05-15T04:04:02.504Z,74.56
2018-05-15T04:06:25.886Z,74.67
2018-05-15T04:08:37.004Z,74.69
2018-05-15T04:10:48.240Z,74.85
2018-05-15T04:13:00.111Z,74.90
2018-05-15T04:15:11.214Z,74.90
2018-05-15T04:17:22.282Z,74.90
2018-05-15T04:19:33.467Z,74.79
2018-05-15T04:21:44.538Z,74.71
2018-05-15T04:23:55.812Z,74.52
2018-05-15T04:26:06.927Z,74.49
2018-05-15T04:28:18.195Z,74.45
2018-05-15T04:30:29.242Z,74.43
2018-05-15T04:32:40.299Z,74.51
2018-05-15T04:34:51.386Z,74.47
2018-05-15T04:37:02.498Z,74.38
2018-05-15T04:39:13.702Z,74.40
2018-05-15T04:41:24.809Z,74.37
2018-05-15T04:43:36.025Z,74.21
2018-05-15T04:45:47.070Z,73.93
2018-05-15T04:47:58.206Z,73.77
2018-05-15T04:50:09.294Z,73.70
2018-05-15T04:52:20.400Z,73.51
2018-05-15T04:54:31.470Z,73.57
2018-05-15T04:56:42.573Z,73.66
2018-05-15T04:58:53.743Z,73.57
2018-05-15T05:01:04.865Z,73.40
2018-05-15T05:03:16.006Z,73.30
2018-05-15T05:05:27.119Z,73.00
2018-05-15T05:07:38.202Z,72.91
2018-05-15T05:09:49.282Z,72.90
2018-05-15T05:12:00.363Z,72.79
2018-05-15T05:14:11.479Z,72.74
2018-05-15T05:16:22.674Z,72.67
2018-05-15T05:18:33.753Z,72.75
2018-05-15T05:20:44.869Z,72.59
2018-05-15T05:22:56.087Z,72.58
2018-05-15T05:25:07.141Z,72.63
2018-05-15T05:27:18.282Z,72.53
2018-05-15T05:29:29.407Z,72.41
2018-05-15T05:31:40.486Z,72.28
2018-05-15T05:33:51.571Z,72.21
2018-05-15T05:36:02.650Z,72.08
2018-05-15T05:38:13.841Z,71.93
2018-05-15T05:40:24.911Z,71.95
2018-05-15T05:42:36.298Z,71.71
2018-05-15T05:44:47.358Z,71.53
2018-05-15T05:46:58.547Z,71.39
2018-05-15T05:49:09.741Z,71.25
2018-05-15T05:51:21.154Z,71.09
2018-05-15T05:53:32.286Z,70.56
2018-05-15T05:55:43.362Z,69.86
2018-05-15T05:57:54.430Z,69.99
2018-05-15T06:00:05.526Z,70.23
2018-05-15T06:02:16.656Z,70.34
2018-05-15T06:04:27.869Z,70.52
2018-05-15T06:06:38.937Z,70.65
2018-05-15T06:08:50.706Z,70.59
2018-05-15T06:11:01.886Z,70.80
2018-05-15T06:13:12.943Z,70.78
2018-05-15T06:15:24.191Z,70.61
2018-05-15T06:17:35.282Z,70.50
2018-05-15T06:19:46.390Z,70.85
2018-05-15T06:21:57.460Z,71.07
2018-05-15T06:24:08.531Z,71.67
2018-05-15T06:26:19.656Z,71.57
2018-05-15T06:28:30.818Z,71.69
2018-05-15T06:30:41.938Z,71.64
2018-05-15T06:32:53.030Z,71.64
2018-05-15T06:35:04.093Z,71.85
2018-05-15T06:37:15.183Z,71.84
2018-05-15T06:39:26.242Z,71.50
2018-05-15T06:41:37.336Z,72.04
2018-05-15T06:43:48.521Z,72.02
2018-05-15T06:45:59.591Z,71.93
2018-05-15T06:48:10.698Z,71.38
2018-05-15T06:50:25.924Z,70.12
2018-05-15T06:52:37.298Z,70.93
2018-05-15T06:54:48.533Z,70.98
2018-05-15T06:56:59.683Z,70.37
2018-05-15T06:59:10.800Z,70.39
2018-05-15T07:01:22.983Z,68.62
2018-05-15T07:03:34.167Z,68.96
2018-05-15T07:05:45.270Z,69.08
2018-05-15T07:07:58.335Z,69.20
2018-05-15T07:10:09.471Z,69.51
2018-05-15T07:12:20.617Z,69.74
2018-05-15T07:14:31.749Z,69.55
2018-05-15T07:16:42.807Z,68.57
2018-05-15T07:18:53.903Z,68.26
2018-05-15T07:21:06.188Z,66.66
2018-05-15T07:23:17.336Z,65.91
2018-05-15T07:25:28.382Z,63.80
2018-05-15T07:27:39.558Z,63.40
2018-05-15T07:29:50.803Z,61.78
2018-05-15T07:32:01.934Z,60.75
2018-05-15T07:34:12.988Z,58.08
2018-05-15T07:36:24.187Z,57.42
2018-05-15T07:38:35.263Z,60.59
2018-05-15T07:40:46.438Z,59.95
2018-05-15T07:42:57.497Z,57.83
2018-05-15T07:45:08.693Z,56.23
2018-05-15T07:47:19.794Z,55.25
2018-05-15T07:49:30.847Z,53.90
2018-05-15T07:51:41.948Z,53.56
2018-05-15T07:53:53.018Z,53.87
2018-05-15T07:56:04.145Z,51.98
2018-05-15T07:58:15.371Z,52.77
2018-05-15T08:00:26.514Z,53.09
2018-05-15T08:02:37.631Z,53.05
2018-05-15T08:04:48.762Z,51.65
2018-05-15T08:06:59.877Z,52.97
2018-05-15T08:09:10.935Z,52.17
2018-05-15T08:11:22.042Z,50.95
2018-05-15T08:13:33.158Z,50.77
2018-05-15T08:15:44.299Z,50.38
2018-05-15T08:17:55.419Z,49.40
2018-05-15T08:20:06.562Z,49.85
2018-05-15T08:22:17.678Z,46.01
2018-05-15T08:24:28.726Z,46.40
2018-05-15T08:26:39.800Z,48.75
2018-05-15T08:28:51.496Z,47.59
2018-05-15T08:31:02.583Z,47.57
2018-05-15T08:33:13.658Z,48.45
2018-05-15T08:35:24.833Z,46.85
2018-05-15T08:37:35.969Z,45.80
2018-05-15T08:39:47.054Z,47.17
2018-05-15T08:41:58.090Z,44.88
2018-05-15T08:44:09.197Z,45.11
2018-05-15T08:46:20.332Z,50.42
2018-05-15T08:48:31.414Z,47.25
2018-05-15T08:50:42.530Z,45.04
2018-05-15T08:52:53.586Z,43.61
2018-05-15T08:55:04.775Z,50.08
2018-05-15T08:57:15.903Z,49.78
2018-05-15T08:59:26.981Z,47.85
2018-05-15T09:01:38.097Z,45.99
2018-05-15T09:03:49.146Z,45.76
2018-05-15T09:06:00.218Z,44.71
2018-05-15T09:08:11.322Z,45.40
2018-05-15T09:10:22.423Z,46.82
2018-05-15T09:12:33.557Z,45.80
2018-05-15T09:14:44.719Z,45.91
2018-05-15T09:16:55.794Z,45.82
2018-05-15T09:19:06.899Z,44.88
2018-05-15T09:21:17.943Z,45.92
2018-05-15T09:23:29.022Z,47.10
2018-05-15T09:25:40.098Z,42.57
2018-05-15T09:27:51.234Z,42.34
2018-05-15T09:30:02.307Z,43.76
2018-05-15T09:32:13.470Z,41.46
2018-05-15T09:34:24.699Z,41.37
2018-05-15T09:36:35.733Z,42.87
2018-05-15T09:38:47.074Z,42.42
2018-05-15T09:40:58.113Z,44.36
2018-05-15T09:43:10.027Z,42.44
2018-05-15T09:45:21.210Z,44.29
2018-05-15T09:47:32.212Z,43.52
2018-05-15T09:49:43.383Z,42.78
2018-05-15T09:51:54.443Z,42.88
2018-05-15T09:54:05.534Z,40.42
2018-05-15T09:56:16.591Z,43.57
2018-05-15T09:58:27.698Z,41.72
2018-05-15T10:00:38.837Z,42.18
2018-05-15T10:02:49.887Z,42.49
2018-05-15T10:05:01.162Z,42.32
2018-05-15T10:07:12.267Z,42.02
2018-05-15T10:09:23.396Z,43.01
2018-05-15T10:11:34.505Z,42.15
2018-05-15T10:13:45.570Z,40.79
2018-05-15T10:15:56.663Z,42.67
2018-05-15T10:18:07.763Z,43.53
2018-05-15T10:20:19.058Z,44.76
2018-05-15T10:22:30.091Z,43.25
2018-05-15T10:24:41.177Z,42.26
2018-05-15T10:26:52.277Z,44.32
2018-05-15T10:29:03.346Z,43.04
2018-05-15T10:31:14.415Z,44.43
2018-05-15T10:33:25.510Z,45.41
2018-05-15T10:35:36.617Z,42.22
2018-05-15T10:37:47.837Z,41.91
2018-05-15T10:39:58.938Z,44.46
2018-05-15T10:42:10.042Z,42.94
2018-05-15T10:44:21.127Z,38.49
2018-05-15T10:46:32.185Z,38.90
2018-05-15T10:48:43.271Z,40.54
2018-05-15T10:50:54.379Z,40.50
2018-05-15T10:53:05.535Z,38.61
2018-05-15T10:55:16.664Z,39.06
2018-05-15T10:57:27.773Z,38.85
2018-05-15T10:59:39.205Z,38.99
2018-05-15T11:01:50.186Z,39.38
2018-05-15T11:04:01.571Z,37.65
2018-05-15T11:06:12.653Z,36.07
2018-05-15T11:08:23.734Z,35.97
2018-05-15T11:10:34.889Z,36.67
2018-05-15T11:12:46.016Z,36.28
2018-05-15T11:14:57.124Z,37.07
2018-05-15T11:17:08.185Z,37.88
2018-05-15T11:19:31.297Z,39.65
2018-05-15T11:21:54.586Z,39.08
2018-05-15T11:26:52.507Z,38.58
2018-05-15T11:29:03.638Z,38.44
2018-05-15T11:31:14.714Z,39.11
2018-05-15T11:33:25.853Z,39.54
2018-05-15T11:35:37.087Z,39.66
2018-05-15T11:37:48.086Z,40.54
2018-05-15T11:39:59.219Z,39.18
2018-05-15T11:42:10.370Z,39.45
2018-05-15T11:44:21.543Z,37.25
2018-05-15T11:46:32.638Z,37.46
2018-05-15T11:48:44.273Z,36.87
2018-05-15T11:50:55.898Z,36.39
2018-05-15T11:53:07.175Z,35.94
2018-05-15T11:55:17.519Z,35.17
2018-05-15T11:57:28.608Z,36.43
2018-05-15T11:59:39.659Z,34.88
2018-05-15T12:01:50.757Z,35.77
2018-05-15T12:04:01.837Z,35.58
2018-05-15T12:06:12.920Z,36.17
2018-05-15T12:08:24.119Z,34.75
2018-05-15T12:10:35.219Z,35.47
2018-05-15T12:12:46.386Z,36.93
2018-05-15T12:14:57.663Z,36.01
2018-05-15T12:17:08.667Z,36.06
2018-05-15T12:19:19.755Z,36.62
2018-05-15T12:21:30.855Z,38.15
2018-05-15T12:23:41.974Z,36.52
2018-05-15T12:25:53.077Z,36.96
2018-05-15T12:28:04.242Z,36.71
2018-05-15T12:30:15.408Z,38.18
2018-05-15T12:32:26.474Z,37.77
2018-05-15T12:34:37.694Z,35.69
2018-05-15T12:36:49.407Z,36.15
2018-05-15T12:39:00.507Z,38.74
2018-05-15T12:41:11.763Z,35.92
2018-05-15T12:43:22.794Z,36.69
2018-05-15T12:45:33.928Z,37.82
2018-05-15T12:47:45.100Z,35.65
2018-05-15T12:49:56.081Z,36.16
2018-05-15T12:52:07.219Z,35.44
2018-05-15T12:54:18.390Z,38.26
2018-05-15T12:56:29.538Z,36.17
2018-05-15T12:58:40.595Z,36.93
2018-05-15T13:00:51.798Z,36.51
2018-05-15T13:03:02.858Z,33.75
2018-05-15T13:05:13.913Z,33.61
2018-05-15T13:07:25.030Z,33.78
2018-05-15T13:09:36.155Z,33.83
2018-05-15T13:11:47.286Z,33.85
2018-05-15T13:13:58.502Z,33.94
2018-05-15T13:16:09.674Z,36.79
2018-05-15T13:18:20.768Z,34.14
2018-05-15T13:20:31.858Z,33.79
2018-05-15T13:22:42.975Z,35.62
2018-05-15T13:24:54.041Z,35.22
2018-05-15T13:27:05.176Z,33.78
2018-05-15T13:29:16.239Z,34.07
2018-05-15T13:31:27.407Z,33.80
2018-05-15T13:33:38.563Z,32.99
2018-05-15T13:35:49.735Z,34.33
2018-05-15T13:38:00.858Z,32.96
2018-05-15T13:40:12.029Z,33.92
2018-05-15T13:42:23.126Z,34.73
2018-05-15T13:44:34.221Z,33.37
2018-05-15T13:46:45.318Z,34.06
2018-05-15T13:48:56.418Z,34.09
2018-05-15T13:51:07.503Z,34.19
2018-05-15T13:53:18.613Z,34.71
2018-05-15T13:55:29.758Z,35.48
2018-05-15T13:57:40.830Z,34.43
2018-05-15T13:59:52.011Z,34.58
2018-05-15T14:02:03.121Z,36.11
2018-05-15T14:04:14.218Z,33.64
2018-05-15T14:06:25.307Z,36.29
2018-05-15T14:08:36.426Z,35.26
2018-05-15T14:10:47.573Z,35.10
2018-05-15T14:12:58.662Z,36.63
2018-05-15T14:15:09.884Z,36.05
2018-05-15T14:17:20.981Z,35.96
2018-05-15T14:19:32.086Z,35.41
2018-05-15T14:21:43.184Z,35.55
2018-05-15T14:23:54.236Z,35.43
2018-05-15T14:26:05.409Z,34.54
2018-05-15T14:28:16.541Z,35.93
2018-05-15T14:30:27.606Z,35.35
2018-05-15T14:32:38.854Z,36.17
2018-05-15T14:34:50.056Z,35.44
2018-05-15T14:37:01.122Z,35.76
2018-05-15T14:39:12.270Z,35.16
2018-05-15T14:41:35.581Z,36.21
2018-05-15T14:43:46.727Z,35.64
2018-05-15T14:45:58.031Z,35.99
2018-05-15T14:48:09.142Z,36.08
2018-05-15T14:50:20.290Z,35.83
2018-05-15T14:52:31.389Z,35.45
2018-05-15T14:54:42.502Z,35.13
2018-05-15T14:56:53.574Z,35.48
2018-05-15T14:59:04.642Z,34.91
2018-05-15T15:01:15.721Z,36.11
2018-05-15T15:03:26.839Z,35.04
2018-05-15T15:05:38.133Z,35.73
2018-05-15T15:07:49.195Z,35.94
2018-05-15T15:10:00.550Z,35.07
2018-05-15T15:12:11.595Z,35.93
2018-05-15T15:14:22.697Z,35.02
2018-05-15T15:16:33.770Z,34.79
2018-05-15T15:18:44.879Z,34.69
2018-05-15T15:20:55.989Z,35.38
2018-05-15T15:23:07.135Z,35.48
2018-05-15T15:25:18.303Z,34.74
2018-05-15T15:27:29.369Z,34.98
2018-05-15T15:29:40.600Z,35.64
2018-05-15T15:31:51.700Z,36.33
2018-05-15T15:34:02.833Z,36.40
2018-05-15T15:36:13.927Z,37.06
2018-05-15T15:38:25.034Z,36.89
2018-05-15T15:40:36.213Z,33.84
2018-05-15T15:42:47.313Z,34.83
2018-05-15T15:44:58.471Z,34.06
2018-05-15T15:47:09.578Z,33.17
2018-05-15T15:49:20.820Z,34.43
2018-05-15T15:51:31.916Z,34.41
2018-05-15T15:53:43.068Z,34.90
2018-05-15T15:55:54.190Z,37.76
2018-05-15T15:58:05.276Z,38.02
2018-05-15T16:00:16.389Z,38.70
2018-05-15T16:02:27.482Z,40.46
2018-05-15T16:04:38.633Z,41.62
2018-05-15T16:06:49.723Z,42.28
2018-05-15T16:09:00.856Z,42.90
2018-05-15T16:11:11.966Z,42.82
2018-05-15T16:13:23.006Z,41.27
2018-05-15T16:15:34.171Z,41.46
2018-05-15T16:17:45.231Z,40.54
2018-05-15T16:19:56.405Z,40.73
2018-05-15T16:22:07.532Z,41.78
2018-05-15T16:24:18.624Z,42.18
2018-05-15T16:26:29.686Z,41.75
2018-05-15T16:28:40.965Z,39.86
2018-05-15T16:30:52.018Z,39.96
2018-05-15T16:33:03.123Z,39.80
2018-05-15T16:35:14.224Z,39.41
2018-05-15T16:37:25.291Z,39.87
2018-05-15T16:39:36.419Z,40.10
2018-05-15T16:41:47.523Z,40.34
2018-05-15T16:43:58.660Z,40.57
2018-05-15T16:46:09.776Z,40.51
2018-05-15T16:48:20.970Z,40.17
2018-05-15T16:50:32.049Z,40.98
2018-05-15T16:52:43.166Z,40.06
2018-05-15T16:54:54.240Z,40.46
2018-05-15T16:57:05.391Z,40.64
2018-05-15T16:59:16.535Z,39.97
2018-05-15T17:01:27.636Z,39.88
2018-05-15T17:03:38.730Z,40.03
2018-05-15T17:05:49.794Z,39.45
2018-05-15T17:08:00.995Z,39.11
2018-05-15T17:10:12.108Z,39.66
2018-05-15T17:12:23.211Z,39.46
2018-05-15T17:14:34.371Z,39.91
2018-05-15T17:16:45.512Z,40.59
2018-05-15T17:18:56.661Z,40.98
2018-05-15T17:21:07.724Z,42.12
2018-05-15T17:23:18.931Z,49.59
2018-05-15T17:25:30.111Z,49.61
2018-05-15T17:27:42.351Z,48.92
2018-05-15T17:29:53.423Z,48.56
2018-05-15T17:32:04.517Z,50.15
2018-05-15T17:34:15.723Z,52.82
2018-05-15T17:36:26.863Z,55.69
2018-05-15T17:38:37.978Z,57.87
2018-05-15T17:40:49.241Z,59.19
2018-05-15T17:43:00.251Z,60.93
2018-05-15T17:45:11.368Z,61.84
2018-05-15T17:47:22.587Z,59.11
2018-05-15T17:49:33.629Z,58.01
2018-05-15T17:51:44.733Z,58.26
2018-05-15T17:53:55.910Z,58.14
2018-05-15T17:56:07.073Z,58.80
2018-05-15T17:58:18.153Z,60.22
2018-05-15T18:00:29.383Z,59.44
2018-05-15T18:02:40.467Z,60.10
2018-05-15T18:04:51.556Z,60.22
2018-05-15T18:07:02.570Z,59.25
2018-05-15T18:09:13.732Z,59.37
2018-05-15T18:11:24.813Z,59.96
2018-05-15T18:13:35.927Z,60.76
2018-05-15T18:15:47.135Z,62.30
2018-05-15T18:17:58.231Z,62.07
2018-05-15T18:20:09.383Z,62.33
2018-05-15T18:22:20.528Z,62.02
2018-05-15T18:24:31.606Z,62.04
2018-05-15T18:26:42.745Z,61.97
2018-05-15T18:28:53.811Z,60.49
2018-05-15T18:31:04.994Z,60.90
2018-05-15T18:33:16.179Z,61.34
2018-05-15T18:35:27.353Z,62.68
2018-05-15T18:37:38.392Z,62.15
2018-05-15T18:39:49.507Z,63.37
2018-05-15T18:42:00.623Z,65.41
2018-05-15T18:44:11.773Z,66.55
2018-05-15T18:46:22.928Z,66.71
2018-05-15T18:48:34.046Z,67.58
2018-05-15T18:50:45.177Z,67.62
2018-05-15T18:52:56.304Z,68.54
2018-05-15T18:55:07.449Z,68.23
2018-05-15T18:57:18.514Z,68.49
2018-05-15T18:59:29.639Z,68.86
2018-05-15T19:01:42.536Z,69.03
2018-05-15T19:03:53.708Z,69.18
2018-05-15T19:06:04.813Z,69.11
2018-05-15T19:08:15.986Z,68.99
2018-05-15T19:10:27.214Z,68.46
2018-05-15T19:12:38.364Z,68.42
2018-05-15T19:14:49.606Z,68.11
2018-05-15T19:17:00.788Z,68.86
2018-05-15T19:19:11.990Z,68.45
2018-05-15T19:21:23.073Z,68.09
2018-05-15T19:23:34.223Z,68.40
2018-05-15T19:25:45.369Z,68.15
2018-05-15T19:27:56.536Z,68.52
2018-05-15T19:30:07.623Z,68.57
2018-05-15T19:32:18.747Z,68.44
2018-05-15T19:34:29.923Z,68.93
2018-05-15T19:36:46.943Z,69.33
2018-05-15T19:39:04.266Z,68.30
2018-05-15T19:41:19.293Z,68.96
2018-05-15T19:43:30.520Z,68.93
2018-05-15T19:45:41.607Z,69.23
2018-05-15T19:47:52.686Z,69.44
2018-05-15T19:50:03.898Z,69.79
2018-05-15T19:52:14.991Z,69.34
2018-05-15T19:54:26.101Z,69.59
2018-05-15T19:56:37.237Z,69.14
2018-05-15T19:58:48.301Z,68.86
2018-05-15T20:00:59.501Z,69.54
2018-05-15T20:03:10.575Z,68.95
2018-05-15T20:05:21.778Z,69.27
2018-05-15T20:07:32.862Z,69.19
2018-05-15T20:09:44.152Z,69.51
2018-05-15T20:11:55.255Z,68.80
2018-05-15T20:14:06.351Z,69.12
2018-05-15T20:16:17.509Z,69.05
2018-05-15T20:18:28.541Z,69.34
2018-05-15T20:20:39.712Z,69.23
2018-05-15T20:22:50.822Z,69.11
2018-05-15T20:25:01.961Z,69.62
2018-05-15T20:27:13.079Z,69.82
2018-05-15T20:29:24.179Z,69.85
2018-05-15T20:31:35.432Z,69.41
2018-05-15T20:33:46.551Z,69.77
2018-05-15T20:35:58.016Z,69.89
2018-05-15T20:38:09.102Z,69.86
2018-05-15T20:40:20.177Z,70.35
2018-05-15T20:42:31.380Z,70.23
2018-05-15T20:44:42.495Z,70.43
2018-05-15T20:46:53.737Z,70.13
2018-05-15T20:49:04.831Z,69.85
2018-05-15T20:51:15.986Z,69.93
2018-05-15T20:53:27.059Z,69.67
2018-05-15T20:55:38.165Z,69.99
2018-05-15T20:57:49.292Z,69.66
2018-05-15T21:00:00.748Z,70.08
2018-05-15T21:02:11.871Z,69.66
2018-05-15T21:04:22.954Z,69.65
2018-05-15T21:06:34.025Z,69.50
2018-05-15T21:08:46.286Z,69.62
2018-05-15T21:10:57.422Z,69.99
2018-05-15T21:13:08.489Z,70.53
2018-05-15T21:15:19.573Z,70.27
2018-05-15T21:17:30.694Z,69.88
2018-05-15T21:19:41.910Z,69.83
2018-05-15T21:21:53.064Z,69.76
2018-05-15T21:24:04.154Z,69.79
2018-05-15T21:26:15.238Z,69.78
2018-05-15T21:28:26.384Z,69.66
2018-05-15T21:30:37.458Z,69.96
2018-05-15T21:32:48.559Z,69.79
2018-05-15T21:34:59.665Z,69.46
2018-05-15T21:37:10.719Z,69.46
2018-05-15T21:39:21.948Z,70.07
2018-05-15T21:41:33.026Z,70.14
2018-05-15T21:43:44.321Z,70.07
2018-05-15T21:45:55.432Z,70.18
2018-05-15T21:48:06.549Z,70.19
2018-05-15T21:50:17.684Z,69.69
2018-05-15T21:52:28.782Z,69.31
2018-05-15T21:54:39.894Z,69.37
2018-05-15T21:56:50.956Z,69.61
2018-05-15T21:59:02.178Z,70.29
2018-05-15T22:01:13.259Z,70.29
2018-05-15T22:03:24.389Z,70.41
2018-05-15T22:05:35.474Z,70.06
2018-05-15T22:07:46.576Z,70.29
2018-05-15T22:09:57.681Z,70.39
2018-05-15T22:12:21.091Z,70.29
2018-05-15T22:14:44.343Z,70.50
2018-05-15T22:17:07.538Z,70.07
2018-05-15T22:19:30.939Z,70.09
2018-05-15T22:21:54.280Z,71.06
2018-05-15T22:24:05.376Z,71.17
2018-05-15T22:26:16.516Z,70.66
2018-05-15T22:28:27.635Z,70.60
2018-05-15T22:30:38.723Z,70.52
2018-05-15T22:32:49.814Z,70.33
2018-05-15T22:35:00.889Z,70.11
2018-05-15T22:37:12.021Z,70.32
2018-05-15T22:39:23.098Z,70.04
2018-05-15T22:41:34.430Z,70.32
2018-05-15T22:43:45.398Z,70.05
2018-05-15T22:45:56.532Z,70.04
2018-05-15T22:48:07.609Z,70.17
2018-05-15T22:50:19.075Z,70.33
2018-05-15T22:52:31.087Z,70.40
2018-05-15T22:54:42.358Z,70.37
2018-05-15T22:56:53.471Z,70.57
2018-05-15T22:59:04.608Z,70.58
2018-05-15T23:01:15.727Z,70.68
2018-05-15T23:03:26.810Z,70.41
2018-05-15T23:05:37.880Z,70.19
2018-05-15T23:07:48.968Z,70.56
2018-05-15T23:10:00.057Z,70.31
2018-05-15T23:12:11.172Z,70.03
2018-05-15T23:14:22.350Z,70.09
2018-05-15T23:16:33.409Z,70.03
2018-05-15T23:18:44.518Z,70.38
2018-05-15T23:20:55.597Z,70.62
2018-05-15T23:23:06.706Z,70.97
2018-05-15T23:25:17.759Z,71.18
2018-05-15T23:27:28.858Z,71.36
2018-05-15T23:29:40.007Z,71.22
2018-05-15T23:31:51.146Z,71.54
2018-05-15T23:34:02.254Z,71.37
2018-05-15T23:36:13.304Z,70.85
2018-05-15T23:38:24.461Z,71.22
2018-05-15T23:40:35.515Z,71.16
2018-05-15T23:42:46.570Z,70.90
2018-05-15T23:44:57.671Z,70.71
2018-05-15T23:47:08.745Z,70.60
2018-05-15T23:49:19.950Z,70.14
2018-05-15T23:51:31.110Z,69.99
2018-05-15T23:53:42.455Z,69.98
2018-05-15T23:55:53.699Z,70.37
2018-05-15T23:58:04.842Z,70.44
